Warning: Javascript must be enabled to use all the features on this page!


Page Loading - Please Wait...

Click to hideNews Bulletins

USGS 04189260 Blanchard River at Ottawa OH

PROVISIONAL DATA SUBJECT TO REVISION

Click to hidestation-specific text
Station operated in cooperation with the Village of Ottawa and the Groundwater and Streamflow Information Program
 04189260 Blanchard River at Ottawa, OH
 LOCATION.--Lat 41°01'01", long 84°02'49", Putnam County, OH, Hydrologic 
     Unit 04100008, on right bank at downstream side of Oak Street, 200 ft. upstream 
     of B&O railroad bridge, 800 ft. upstream of SR65 bridge, 1,200 ft. southeast of 
     intersection of SR65 and US RT224 in the village of Ottawa, OH.
 DRAINAGE AREA.--628 mi2.
 PERIOD OF RECORD.--October 2009 to current water year.
Want to learn more about areas near this gage that are inundated during flooding? See the USGS flood-inundation mapper.

Boating safety tips
Available Parameters Available Period
All 2 Available Parameters for this site
  
00060 Discharge 2009-10-01  2017-07-21
00065 Gage height 2017-03-23  2017-07-21

Graph
Graph w/ stats
Graph w/o stats
Graph w/ (up to 3) parms
Table
Tab-separated
Days  (7)
 

  -- or --
Begin date
 

End date
 

Summary of all available data for this site
Instantaneous-data availability statement
Gage height, feet
TIMEJul 14Jul 15Jul 16Jul 17Jul 18Jul 19Jul 20Jul 21
00:00 EDT24.17P  27.10P  27.32P  25.40P  22.89P  17.39P  11.12P  8.40P  
00:30 EDT24.26P  27.12P  27.27P  25.33P  22.83P  17.27P  11.00P  8.38P  
01:00 EDT24.37P  27.15P  27.26P  25.26P  22.76P  17.15P  10.88P  8.35P  
01:30 EDT24.48P  27.18P  27.21P  25.22P  22.66P  17.03P  10.77P  8.33P  
02:00 EDT24.59P  27.19P  27.21P  25.19P  22.60P  16.91P  10.65P  8.31P  
02:30 EDT24.71P  27.22P  27.18P  25.13P  22.51P  16.78P  10.55P  8.29P  
03:00 EDT24.81P  27.25P  27.16P  25.08P  22.41P  16.66P  10.45P  8.27P  
03:30 EDT24.93P  27.27P  27.13P  25.04P  22.32P  16.54P  10.35P  8.25P  
04:00 EDT25.04P  27.29P  27.10P  25.00P  22.23P  16.42P  10.25P  8.23P  
04:30 EDT25.15P  27.31P  27.07P  24.96P  22.11P  16.30P  10.16P  8.21P  
05:00 EDT25.28P  27.34P  27.02P  24.92P  22.01P  16.17P  10.07P  8.19P  
05:30 EDT25.38P  27.34P  27.01P  24.90P  21.91P  16.05P  9.98P  8.18P  
06:00 EDT25.49P  27.37P  26.97P  24.87P  21.80P  15.93P  9.90P  8.15P  
06:30 EDT25.60P  27.40P  26.94P  24.83P  21.68P  15.80P  9.83P  8.14P  
07:00 EDT25.71P  27.42P  26.91P  24.76P  21.58P  15.68P  9.75P  8.11P  
07:30 EDT25.81P  27.44P  26.87P  24.76P  21.46P  15.55P  9.68P  8.10P  
08:00 EDT25.90P  27.45P  26.84P  24.70P  21.34P  15.43P  9.61P  8.08P  
08:30 EDT25.98P  27.45P  26.81P  24.67P  21.22P  15.30P  9.54P  8.05P  
09:00 EDT26.10P  27.49P  26.77P  24.65P  21.11P  15.17P  9.48P  8.04P  
09:30 EDT26.15P  27.48P  26.73P  24.59P  20.98P  15.04P  9.42P  8.02P  
10:00 EDT26.22P  27.49P  26.71P  24.53P  20.87P  14.92P  9.36P  8.01P  
10:30 EDT26.32P  27.52P  26.67P  24.51P  20.76P  14.79P  9.30P  7.99P  
11:00 EDT26.37P  27.52P  26.60P  24.44P  20.64P  14.66P  9.25P  7.97P  
11:30 EDT26.44P  27.52P  26.58P  24.41P  20.51P  14.52P  9.19P  7.96P  
12:00 EDT26.50P  27.52P  26.54P  24.34P  20.39P  14.39P  9.15P  7.94P  
12:30 EDT26.53P  27.52P  26.48P  24.31P  20.26P  14.25P  9.10P  7.93P  
13:00 EDT26.58P  27.55P  26.45P  24.25P  20.14P  14.12P  9.06P  7.91P  
13:30 EDT26.62P  27.53P  26.41P  24.20P  20.02P  13.98P  9.01P  7.89P  
14:00 EDT26.66P  27.54P  26.36P  24.14P  19.90P  13.85P  8.97P  7.87P  
14:30 EDT26.67P  27.54P  26.30P  24.07P  19.77P  13.72P  8.93P  7.86P  
15:00 EDT26.70P  27.54P  26.27P  24.02P  19.65P  13.58P  8.90P  7.85P  
15:30 EDT26.74P  27.52P  26.24P  23.96P  19.52P  13.44P  8.86P  7.84P  
16:00 EDT26.73P  27.53P  26.19P  23.90P  19.40P  13.30P  8.82P  7.82P  
16:30 EDT26.77P  27.53P  26.17P  23.84P  19.27P  13.16P  8.79P  7.81P  
17:00 EDT26.77P  27.53P  26.09P  23.75P  19.15P  13.03P  8.76P  7.79P  
17:30 EDT26.79P  27.48P  26.08P  23.72P  19.02P  12.88P  8.73P  7.78P  
18:00 EDT26.81P  27.49P  26.05P  23.64P  18.90P  12.75P  8.70P  7.76P  
18:30 EDT26.83P  27.47P  26.00P  23.56P  18.77P  12.60P  8.67P  7.75P  
19:00 EDT26.87P  27.47P  25.94P  23.52P  18.64P  12.47P  8.64P  7.73P  
19:30 EDT26.88P  27.45P  25.87P  23.46P  18.51P  12.32P  8.61P  7.71P  
20:00 EDT26.90P  27.43P  25.83P  23.38P  18.39P  12.18P  8.59P  7.70P  
20:30 EDT26.93P  27.45P  25.80P  23.33P  18.26P  12.04P  8.56P  7.68P  
21:00 EDT26.95P  27.39P  25.72P  23.26P  18.14P  11.90P  8.54P   
21:30 EDT26.96P  27.40P  25.65P  23.21P  18.01P  11.76P  8.51P   
22:00 EDT26.99P  27.38P  25.62P  23.14P  17.89P  11.63P  8.49P   
22:30 EDT27.02P  27.37P  25.55P  23.08P  17.76P  11.50P  8.46P   
23:00 EDT27.05P  27.35P  25.51P  23.01P  17.64P  11.37P  8.44P   
23:30 EDT27.07P  27.33P  25.45P  22.95P  17.51P  11.24P  8.42P   
COUNT4848484848484842
MAX27.0727.5527.3225.4022.8917.3911.128.40
MIN24.1727.1025.4522.9517.5111.248.427.68

Explanation
  P  Provisional data subject to revision.